PGT991X LTFJ-LBSF
Flight info
| Callsign | PGT991X |
|---|---|
| Flight time | N/A |
| Altitude | 34000 |
| Route | VADEN DCT BAKLO DCT XANEX N605 GOL |
| Aircraft | A320/M-SDE3FGHIRWY/LB1 |
Departure
| Time | 2026-05-06 09:40 |
|---|---|
| Airport | Istanbul Sabiha Gökçen International Airport (LTFJ) |
Arrival
| Time | N/A |
|---|---|
| Airport | Sofia Airport (LBSF) |
| Time | Latitude | Longitude | Altitude | Speed | Heading |
|---|---|---|---|---|---|
| 2026-05-06 09:28 | 40.89655 | 29.32044 | 304 ft | 0 kts | 245° |
| 2026-05-06 09:32 | 40.89656 | 29.32044 | 304 ft | 1 kts | 245° |
| 2026-05-06 09:32 | 40.89666 | 29.32074 | 305 ft | 4 kts | 242° |
| 2026-05-06 09:32 | 40.89680 | 29.32105 | 305 ft | 4 kts | 237° |
| 2026-05-06 09:33 | 40.89695 | 29.32133 | 305 ft | 4 kts | 224° |
| 2026-05-06 09:33 | 40.89716 | 29.32150 | 304 ft | 4 kts | 168° |
| 2026-05-06 09:33 | 40.89721 | 29.32149 | 304 ft | 0 kts | 154° |
| 2026-05-06 09:35 | 40.89713 | 29.32154 | 303 ft | 2 kts | 154° |
| 2026-05-06 09:35 | 40.89660 | 29.32187 | 303 ft | 14 kts | 155° |
| 2026-05-06 09:35 | 40.89570 | 29.32253 | 303 ft | 14 kts | 133° |
| 2026-05-06 09:36 | 40.89524 | 29.32368 | 305 ft | 13 kts | 148° |
| 2026-05-06 09:36 | 40.89452 | 29.32315 | 303 ft | 14 kts | 244° |
| 2026-05-06 09:36 | 40.89403 | 29.32181 | 303 ft | 18 kts | 244° |
| 2026-05-06 09:36 | 40.89343 | 29.32020 | 304 ft | 21 kts | 244° |
| 2026-05-06 09:37 | 40.89275 | 29.31839 | 303 ft | 23 kts | 243° |
| 2026-05-06 09:37 | 40.89197 | 29.31644 | 301 ft | 25 kts | 249° |
| 2026-05-06 09:37 | 40.89126 | 29.31431 | 301 ft | 26 kts | 244° |
| 2026-05-06 09:37 | 40.89045 | 29.31209 | 301 ft | 28 kts | 244° |
| 2026-05-06 09:38 | 40.88958 | 29.30973 | 295 ft | 30 kts | 244° |
| 2026-05-06 09:38 | 40.88863 | 29.30718 | 291 ft | 32 kts | 243° |
| 2026-05-06 09:38 | 40.88767 | 29.30455 | 285 ft | 31 kts | 244° |
| 2026-05-06 09:38 | 40.88686 | 29.30235 | 278 ft | 19 kts | 244° |
| 2026-05-06 09:39 | 40.88594 | 29.30209 | 278 ft | 15 kts | 152° |
| 2026-05-06 09:39 | 40.88511 | 29.30289 | 279 ft | 15 kts | 111° |
| 2026-05-06 09:39 | 40.88532 | 29.30386 | 282 ft | 10 kts | 63° |
| 2026-05-06 09:39 | 40.88628 | 29.30651 | 296 ft | 67 kts | 64° |
| 2026-05-06 09:40 | 40.88936 | 29.31484 | 299 ft | 131 kts | 64° |
| 2026-05-06 09:40 | 40.89412 | 29.32759 | 459 ft | 165 kts | 65° |
| 2026-05-06 09:40 | 40.90190 | 29.35656 | 1656 ft | 189 kts | 97° |
| 2026-05-06 09:41 | 40.89908 | 29.37454 | 2090 ft | 213 kts | 100° |
| 2026-05-06 09:41 | 40.89674 | 29.39502 | 2608 ft | 237 kts | 97° |
| 2026-05-06 09:41 | 40.89486 | 29.41749 | 3355 ft | 251 kts | 95° |
| 2026-05-06 09:41 | 40.89326 | 29.44073 | 4365 ft | 257 kts | 92° |
| 2026-05-06 09:42 | 40.89557 | 29.46413 | 5260 ft | 263 kts | 68° |
| 2026-05-06 09:42 | 40.90363 | 29.48620 | 6158 ft | 269 kts | 61° |
| 2026-05-06 09:42 | 40.91205 | 29.50853 | 7125 ft | 273 kts | 62° |
| 2026-05-06 09:42 | 40.92041 | 29.53120 | 8076 ft | 276 kts | 62° |
| 2026-05-06 09:43 | 40.92885 | 29.55428 | 8992 ft | 281 kts | 62° |
| 2026-05-06 09:43 | 40.93742 | 29.57775 | 9923 ft | 285 kts | 62° |
| 2026-05-06 09:43 | 40.94629 | 29.60203 | 10432 ft | 305 kts | 62° |
| 2026-05-06 09:43 | 40.95587 | 29.62825 | 10769 ft | 328 kts | 62° |
| 2026-05-06 09:44 | 40.96585 | 29.65566 | 11312 ft | 340 kts | 62° |
| 2026-05-06 09:44 | 40.97629 | 29.68405 | 12079 ft | 345 kts | 59° |
| 2026-05-06 09:44 | 40.99069 | 29.70934 | 12871 ft | 345 kts | 41° |
| 2026-05-06 09:44 | 41.01031 | 29.72742 | 13673 ft | 345 kts | 23° |
| 2026-05-06 09:45 | 41.03324 | 29.73644 | 14410 ft | 346 kts | 6° |
| 2026-05-06 09:45 | 41.05729 | 29.73555 | 15096 ft | 349 kts | 348° |
| 2026-05-06 09:45 | 41.08085 | 29.72726 | 15780 ft | 353 kts | 344° |
| 2026-05-06 09:45 | 41.10447 | 29.71782 | 16472 ft | 356 kts | 339° |
| 2026-05-06 09:46 | 41.12593 | 29.70106 | 17107 ft | 362 kts | 320° |
| 2026-05-06 09:46 | 41.14212 | 29.67530 | 17741 ft | 369 kts | 301° |
| 2026-05-06 09:46 | 41.15421 | 29.64508 | 18396 ft | 373 kts | 299° |
| 2026-05-06 09:46 | 41.16617 | 29.61438 | 18981 ft | 376 kts | 299° |
| 2026-05-06 09:47 | 41.17821 | 29.58333 | 19552 ft | 380 kts | 299° |
| 2026-05-06 09:47 | 41.19034 | 29.55203 | 20093 ft | 383 kts | 298° |
| 2026-05-06 09:47 | 41.20257 | 29.52047 | 20631 ft | 386 kts | 298° |
| 2026-05-06 09:47 | 41.21491 | 29.48865 | 21163 ft | 389 kts | 299° |
| 2026-05-06 09:48 | 41.22739 | 29.45655 | 21683 ft | 392 kts | 299° |
| 2026-05-06 09:48 | 41.23997 | 29.42424 | 22202 ft | 396 kts | 299° |
| 2026-05-06 09:48 | 41.25228 | 29.39261 | 22686 ft | 399 kts | 298° |
| 2026-05-06 09:48 | 41.26504 | 29.35970 | 23168 ft | 402 kts | 298° |
| 2026-05-06 09:49 | 41.27788 | 29.32653 | 23666 ft | 405 kts | 298° |
| 2026-05-06 09:49 | 41.29080 | 29.29306 | 24072 ft | 408 kts | 298° |
| 2026-05-06 09:49 | 41.30379 | 29.25937 | 24502 ft | 410 kts | 298° |
| 2026-05-06 09:49 | 41.31684 | 29.22545 | 24926 ft | 413 kts | 298° |
| 2026-05-06 09:50 | 41.32992 | 29.19140 | 25344 ft | 414 kts | 298° |
| 2026-05-06 09:50 | 41.34308 | 29.15716 | 25749 ft | 416 kts | 298° |
| 2026-05-06 09:50 | 41.35630 | 29.12278 | 26151 ft | 418 kts | 298° |
| 2026-05-06 09:50 | 41.36959 | 29.08822 | 26554 ft | 420 kts | 298° |
| 2026-05-06 09:51 | 41.38296 | 29.05346 | 26946 ft | 423 kts | 298° |
| 2026-05-06 09:51 | 41.39636 | 29.01852 | 27346 ft | 425 kts | 298° |
| 2026-05-06 09:51 | 41.40981 | 28.98341 | 27735 ft | 427 kts | 298° |
| 2026-05-06 09:51 | 41.42314 | 28.94861 | 28123 ft | 429 kts | 298° |
| 2026-05-06 09:52 | 41.43673 | 28.91308 | 28499 ft | 431 kts | 298° |
| 2026-05-06 09:52 | 41.45033 | 28.87750 | 28858 ft | 433 kts | 298° |